Time;durP1;ratioP1;P1;durP2;ratioP2;P2;SDS_P1;SDS_P2;PMS_P1;PMS_P2;Temp;Humidity;BMP_temperature;BMP_pressure;BME280_temperature;BME280_humidity;BME280_pressure;Samples;Min_cycle;Max_cycle;Signal;HPM_P1;HPM_P2
2021/12/28 00:01:12;;;;;;;47.53;19.10;;;;;;;-6.76;100.00;101475.88;1758787;81;21079;-65
2021/12/28 00:03:42;;;;;;;48.33;20.37;;;;;;;-6.68;100.00;101476.65;1759228;81;20997;-65
2021/12/28 00:06:11;;;;;;;38.47;18.00;;;;;;;-6.57;100.00;101482.09;1759116;81;21021;-65
2021/12/28 00:08:38;;;;;;;41.93;18.60;;;;;;;-6.50;100.00;101475.30;1758126;81;21048;-65
2021/12/28 00:11:07;;;;;;;41.00;18.37;;;;;;;-6.47;100.00;101473.31;1758487;81;21063;-65
2021/12/28 00:13:35;;;;;;;47.97;21.13;;;;;;;-6.39;100.00;101469.47;1758807;81;21009;-64
2021/12/28 00:18:33;;;;;;;45.40;19.87;;;;;;;-6.43;100.00;101460.52;1758937;81;21051;-66
2021/12/28 00:21:04;;;;;;;45.20;20.87;;;;;;;-6.44;100.00;101458.42;1767133;81;21119;-64
2021/12/28 00:23:40;;;;;;;45.97;20.13;;;;;;;-6.41;100.00;101448.51;1770193;81;21016;-65
2021/12/28 00:26:13;;;;;;;46.90;20.53;;;;;;;-6.41;100.00;101456.02;1770030;81;21067;-65
2021/12/28 00:28:44;;;;;;;44.47;20.10;;;;;;;-6.34;100.00;101451.73;1773736;81;21032;-65
2021/12/28 00:31:15;;;;;;;44.40;19.50;;;;;;;-6.35;100.00;101450.00;1770098;81;21074;-65
2021/12/28 00:33:45;;;;;;;48.87;19.63;;;;;;;-6.33;100.00;101444.66;1770328;81;21000;-65
2021/12/28 00:36:13;;;;;;;45.60;19.87;;;;;;;-6.23;100.00;101447.14;1773910;81;21075;-65
2021/12/28 00:38:40;;;;;;;46.47;19.33;;;;;;;-6.21;100.00;101444.70;1770067;81;21068;-64
2021/12/28 00:41:08;;;;;;;46.50;19.97;;;;;;;-6.15;100.00;101442.02;1769917;81;21012;-65
2021/12/28 00:43:35;;;;;;;46.03;19.83;;;;;;;-6.13;100.00;101438.33;1770060;81;21464;-65
2021/12/28 00:46:04;;;;;;;49.07;20.33;;;;;;;-6.09;100.00;101433.90;1769523;81;21539;-64
2021/12/28 00:48:33;;;;;;;39.63;19.03;;;;;;;-6.04;100.00;101429.93;1769856;81;21507;-65
2021/12/28 00:51:00;;;;;;;49.53;20.37;;;;;;;-6.01;100.00;101427.93;1769949;81;21579;-65
2021/12/28 00:53:28;;;;;;;50.63;21.03;;;;;;;-5.93;100.00;101432.80;1769877;81;21520;-65
2021/12/28 00:55:55;;;;;;;45.53;19.73;;;;;;;-5.90;100.00;101426.64;1770078;81;21027;-65
2021/12/28 00:58:22;;;;;;;44.57;19.97;;;;;;;-5.82;100.00;101422.77;1770045;81;21051;-65
2021/12/28 01:00:50;;;;;;;48.07;19.27;;;;;;;-5.81;100.00;101418.62;1770093;81;21086;-65
2021/12/28 01:03:19;;;;;;;41.43;18.27;;;;;;;-5.76;100.00;101414.62;1769942;81;21014;-65
2021/12/28 01:05:46;;;;;;;46.23;18.20;;;;;;;-5.84;100.00;101406.43;1769967;81;20989;-66
2021/12/28 01:08:16;;;;;;;43.03;19.27;;;;;;;-5.82;100.00;101393.08;1769737;81;21507;-65
2021/12/28 01:10:48;;;;;;;45.67;18.33;;;;;;;-5.72;100.00;101390.11;1769873;81;21004;-65
2021/12/28 01:13:18;;;;;;;42.57;18.37;;;;;;;-5.69;100.00;101397.76;1770136;81;21539;-65
2021/12/28 01:15:45;;;;;;;38.67;17.47;;;;;;;-5.64;100.00;101391.23;1769865;80;21020;-66
2021/12/28 01:18:12;;;;;;;41.77;17.03;;;;;;;-5.60;100.00;101385.53;1769600;81;21075;-65
2021/12/28 01:20:42;;;;;;;35.07;16.10;;;;;;;-5.53;100.00;101367.81;1769727;81;21076;-65
2021/12/28 01:23:10;;;;;;;37.00;15.67;;;;;;;-5.50;100.00;101365.40;1770194;81;21531;-65
2021/12/28 01:25:38;;;;;;;38.67;16.40;;;;;;;-5.42;100.00;101371.54;1763041;80;21600;-65
2021/12/28 01:28:06;;;;;;;42.73;18.00;;;;;;;-5.34;100.00;101369.30;1760308;81;20992;-65
2021/12/28 01:30:34;;;;;;;37.57;16.40;;;;;;;-5.35;100.00;101377.23;1760891;80;21003;-65
2021/12/28 01:33:02;;;;;;;41.07;16.27;;;;;;;-5.26;100.00;101372.92;1760135;81;21425;-66
2021/12/28 01:35:33;;;;;;;39.23;16.57;;;;;;;-5.30;100.00;101382.41;1759757;81;21024;-64
2021/12/28 01:38:01;;;;;;;40.73;16.60;;;;;;;-5.27;100.00;101383.75;1758827;80;21037;-65
2021/12/28 01:40:33;;;;;;;39.27;16.80;;;;;;;-5.20;100.00;101383.59;1745275;81;21047;-65
2021/12/28 01:43:13;;;;;;;41.17;17.57;;;;;;;-5.25;100.00;101388.45;1750828;81;21002;-65
2021/12/28 01:45:51;;;;;;;46.73;17.47;;;;;;;-5.23;100.00;101388.11;1749973;81;20997;-65
2021/12/28 01:48:35;;;;;;;37.50;16.77;;;;;;;-5.23;100.00;101393.13;1750106;81;21096;-65
2021/12/28 01:51:09;;;;;;;40.88;18.65;;;;;;;-5.19;100.00;101391.17;1749850;81;21448;-65
2021/12/28 01:53:38;;;;;;;41.47;17.73;;;;;;;-5.19;100.00;101392.80;1749506;81;21023;-64
2021/12/28 01:56:10;;;;;;;34.77;16.33;;;;;;;-5.27;100.00;101390.02;1714666;82;21573;-65
2021/12/28 01:58:38;;;;;;;35.63;16.23;;;;;;;-5.29;100.00;101385.36;1761831;80;21434;-65
2021/12/28 02:01:06;;;;;;;37.13;15.27;;;;;;;-5.37;100.00;101377.96;1757460;81;21062;-64
2021/12/28 02:03:37;;;;;;;37.83;15.90;;;;;;;-5.43;100.00;101376.12;1759771;80;20964;-64
2021/12/28 02:06:04;;;;;;;35.43;15.67;;;;;;;-5.46;100.00;101373.08;1761565;80;21551;-65
2021/12/28 02:08:31;;;;;;;39.43;16.90;;;;;;;-5.45;100.00;101378.56;1761105;80;21010;-65
2021/12/28 02:11:00;;;;;;;35.47;16.43;;;;;;;-5.39;100.00;101376.68;1757390;81;21002;-65
2021/12/28 02:13:28;;;;;;;33.43;15.93;;;;;;;-5.37;100.00;101384.23;1760270;80;21510;-64
2021/12/28 02:15:57;;;;;;;32.40;15.13;;;;;;;-5.29;100.00;101389.12;1757742;80;20960;-65
2021/12/28 02:18:27;;;;;;;32.27;14.57;;;;;;;-5.35;100.00;101381.00;1760712;80;21512;-64
2021/12/28 02:20:56;;;;;;;32.17;14.43;;;;;;;-5.41;100.00;101384.55;1761401;80;21040;-65
2021/12/28 02:23:23;;;;;;;34.03;14.47;;;;;;;-5.38;100.00;101386.30;1744371;81;20987;-64
2021/12/28 02:25:52;;;;;;;33.77;16.23;;;;;;;-5.36;100.00;101384.70;1749257;81;21540;-65
2021/12/28 02:28:19;;;;;;;33.13;14.97;;;;;;;-5.33;100.00;101383.16;1739413;82;20967;-65
2021/12/28 02:30:53;;;;;;;41.83;17.00;;;;;;;-5.36;100.00;101380.94;1710118;82;20981;-66
2021/12/28 02:33:23;;;;;;;39.43;16.37;;;;;;;-5.30;100.00;101379.89;1689991;83;21642;-65
2021/12/28 02:35:53;;;;;;;31.10;15.67;;;;;;;-5.28;100.00;101384.56;1706776;83;21043;-66
2021/12/28 02:38:20;;;;;;;33.77;15.97;;;;;;;-5.23;100.00;101376.81;1761157;80;21504;-65
2021/12/28 02:40:47;;;;;;;37.40;16.77;;;;;;;-5.20;100.00;101373.55;1710562;83;21033;-65
2021/12/28 02:43:17;;;;;;;34.40;15.57;;;;;;;-5.25;100.00;101370.89;1698730;83;21078;-65
2021/12/28 02:45:51;;;;;;;38.60;15.77;;;;;;;-5.26;100.00;101367.91;1690368;84;21009;-64
2021/12/28 02:48:20;;;;;;;31.57;15.27;;;;;;;-5.31;100.00;101363.12;1672477;84;21551;-65
2021/12/28 02:50:51;;;;;;;31.77;15.00;;;;;;;-5.30;100.00;101366.94;1693729;84;21060;-65
2021/12/28 02:53:19;;;;;;;32.83;14.83;;;;;;;-5.28;100.00;101364.49;1705296;83;21020;-65
2021/12/28 02:55:50;;;;;;;29.47;14.33;;;;;;;-5.30;100.00;101356.06;1695729;83;21544;-64
2021/12/28 02:58:34;;;;;;;29.53;13.97;;;;;;;-5.29;100.00;101351.47;1699291;83;21012;-65
2021/12/28 03:01:15;;;;;;;29.43;14.30;;;;;;;-5.34;100.00;101354.24;1697271;84;21525;-65
2021/12/28 03:03:44;;;;;;;28.50;13.90;;;;;;;-5.44;100.00;101352.66;1738338;81;21014;-64
2021/12/28 03:06:15;;;;;;;26.97;13.83;;;;;;;-5.36;100.00;101359.20;1748887;81;20999;-65
2021/12/28 03:08:48;;;;;;;29.50;13.70;;;;;;;-5.38;100.00;101362.06;1743755;81;21007;-65
2021/12/28 03:11:16;;;;;;;28.75;14.63;;;;;;;-5.30;100.00;101359.82;1710561;83;21027;-64
2021/12/28 03:13:48;;;;;;;30.53;13.70;;;;;;;-5.40;100.00;101363.66;1692385;84;21543;-65
2021/12/28 03:16:17;;;;;;;29.73;13.60;;;;;;;-5.37;100.00;101360.39;1693865;84;21090;-64
2021/12/28 03:18:46;;;;;;;31.10;13.93;;;;;;;-5.33;100.00;101348.03;1748947;81;21045;-65
2021/12/28 03:21:16;;;;;;;32.53;14.83;;;;;;;-5.37;100.00;101344.97;1750606;81;21036;-64
2021/12/28 03:23:44;;;;;;;30.73;14.97;;;;;;;-5.38;100.00;101343.65;1747640;81;21024;-65
2021/12/28 03:26:12;;;;;;;31.23;14.10;;;;;;;-5.41;100.00;101338.52;1748840;81;20978;-65
2021/12/28 03:28:42;;;;;;;27.97;13.67;;;;;;;-5.44;100.00;101330.08;1708531;83;20989;-65
2021/12/28 03:31:15;;;;;;;31.07;13.57;;;;;;;-5.40;100.00;101322.67;1697256;83;21016;-65
2021/12/28 03:33:44;;;;;;;29.37;14.37;;;;;;;-5.43;100.00;101315.91;1746246;81;20991;-65
2021/12/28 03:36:14;;;;;;;30.80;14.57;;;;;;;-5.41;100.00;101316.80;1751718;81;20989;-64
2021/12/28 03:38:42;;;;;;;27.53;14.17;;;;;;;-5.36;100.00;101304.00;1744164;81;20945;-65
2021/12/28 03:41:10;;;;;;;35.50;15.23;;;;;;;-5.31;100.00;101298.75;1715984;82;21029;-65
2021/12/28 03:43:42;;;;;;;36.13;14.83;;;;;;;-5.33;100.00;101292.83;1693002;83;20998;-66
2021/12/28 03:46:10;;;;;;;29.27;13.50;;;;;;;-5.32;100.00;101291.16;1763175;80;20960;-65
2021/12/28 03:48:40;;;;;;;32.37;14.80;;;;;;;-5.26;100.00;101287.19;1765125;80;21104;-65
2021/12/28 03:51:08;;;;;;;30.97;13.37;;;;;;;-5.29;100.00;101282.08;1756988;81;21544;-66
2021/12/28 03:53:36;;;;;;;32.30;14.43;;;;;;;-5.25;100.00;101286.81;1758630;81;21039;-65
2021/12/28 03:56:07;;;;;;;30.03;13.43;;;;;;;-5.21;100.00;101289.88;1718564;82;21044;-66
2021/12/28 03:58:38;;;;;;;31.20;13.07;;;;;;;-5.19;100.00;101288.27;1760312;80;21015;-65
2021/12/28 04:01:05;;;;;;;31.50;14.70;;;;;;;-5.15;100.00;101295.09;1756839;81;20993;-65
2021/12/28 04:03:32;;;;;;;27.17;12.77;;;;;;;-5.10;100.00;101297.33;1760178;81;21470;-65
2021/12/28 04:06:07;;;;;;;29.73;13.07;;;;;;;-5.08;100.00;101289.45;1757718;81;21071;-66
2021/12/28 04:08:28;;;;;;;27.67;13.80;;;;;;;-5.04;100.00;101290.00;1759085;81;20974;-65
2021/12/28 04:11:03;;;;;;;27.87;12.77;;;;;;;-5.02;100.00;101290.05;1759512;80;20983;-65
2021/12/28 04:13:24;;;;;;;29.77;14.27;;;;;;;-5.06;100.00;101287.84;1755520;81;21033;-65
2021/12/28 04:15:51;;;;;;;30.50;14.13;;;;;;;-4.99;100.00;101286.78;1759511;80;21015;-65
2021/12/28 04:18:19;;;;;;;27.13;14.47;;;;;;;-5.00;100.00;101279.66;1724489;82;21032;-65
2021/12/28 04:20:47;;;;;;;29.60;14.27;;;;;;;-4.94;100.00;101275.23;1718299;82;21563;-65
2021/12/28 04:23:16;;;;;;;28.60;13.23;;;;;;;-4.96;100.00;101272.67;1762195;80;21016;-65
2021/12/28 04:25:43;;;;;;;28.40;13.87;;;;;;;-4.94;100.00;101262.27;1760026;80;20992;-65
2021/12/28 04:28:11;;;;;;;26.17;12.70;;;;;;;-5.00;100.00;101267.11;1760901;80;21055;-65
2021/12/28 04:30:39;;;;;;;26.73;13.57;;;;;;;-5.01;100.00;101256.59;1755947;80;21054;-65
2021/12/28 04:33:06;;;;;;;26.23;14.13;;;;;;;-5.00;100.00;101254.96;1761249;80;21015;-65
2021/12/28 04:35:33;;;;;;;29.90;13.27;;;;;;;-4.99;100.00;101246.20;1763958;80;21023;-65
2021/12/28 04:38:00;;;;;;;25.10;13.20;;;;;;;-4.96;100.00;101240.44;1747461;81;21559;-65
2021/12/28 04:40:27;;;;;;;33.17;13.90;;;;;;;-5.02;100.00;101247.78;1710227;83;21064;-66
2021/12/28 04:42:55;;;;;;;26.37;13.30;;;;;;;-5.04;100.00;101238.53;1699419;84;21032;-65
2021/12/28 04:45:22;;;;;;;28.33;13.20;;;;;;;-5.07;100.00;101235.06;1694212;83;21483;-65
2021/12/28 04:47:49;;;;;;;27.27;13.03;;;;;;;-5.09;100.00;101225.00;1699768;83;21013;-65
2021/12/28 04:50:17;;;;;;;26.87;13.00;;;;;;;-5.09;100.00;101231.27;1720816;83;21048;-65
2021/12/28 04:52:45;;;;;;;27.53;13.40;;;;;;;-5.10;100.00;101216.16;1714992;82;20996;-65
2021/12/28 04:55:18;;;;;;;29.43;13.20;;;;;;;-5.13;100.00;101214.41;1718203;82;20971;-65
2021/12/28 04:57:46;;;;;;;29.93;14.03;;;;;;;-5.09;100.00;101209.94;1762344;80;21559;-65
2021/12/28 05:00:18;;;;;;;27.60;14.03;;;;;;;-5.08;100.00;101207.02;1761177;80;21006;-65
2021/12/28 05:02:45;;;;;;;25.73;13.00;;;;;;;-5.02;100.00;101203.85;1756562;81;21018;-65
2021/12/28 05:05:13;;;;;;;28.87;13.60;;;;;;;-4.99;100.00;101188.45;1760519;80;21032;-65
2021/12/28 05:07:41;;;;;;;30.07;13.90;;;;;;;-4.99;100.00;101183.84;1762943;80;20993;-66
2021/12/28 05:10:10;;;;;;;27.07;12.37;;;;;;;-4.98;100.00;101173.85;1753880;81;21034;-65
2021/12/28 05:12:38;;;;;;;28.70;13.13;;;;;;;-5.01;100.00;101175.41;1761146;80;21124;-65
2021/12/28 05:15:07;;;;;;;28.03;13.40;;;;;;;-5.00;100.00;101173.36;1745112;81;21020;-66
2021/12/28 05:17:36;;;;;;;28.27;12.83;;;;;;;-5.04;100.00;101173.26;1750702;80;20996;-66
2021/12/28 05:20:06;;;;;;;29.93;13.90;;;;;;;-5.02;100.00;101164.52;1761617;80;21526;-65
2021/12/28 05:22:34;;;;;;;31.53;13.83;;;;;;;-5.03;100.00;101165.31;1761538;80;20984;-65
2021/12/28 05:25:01;;;;;;;30.23;14.00;;;;;;;-5.04;100.00;101160.70;1759276;81;20991;-65
2021/12/28 05:27:28;;;;;;;30.07;12.53;;;;;;;-5.01;100.00;101159.09;1760454;81;20982;-65
2021/12/28 05:29:55;;;;;;;31.27;13.97;;;;;;;-5.06;100.00;101151.02;1758621;80;21515;-65
2021/12/28 05:32:23;;;;;;;29.27;13.20;;;;;;;-5.04;100.00;101157.35;1759785;81;20955;-65
2021/12/28 05:34:50;;;;;;;25.97;12.90;;;;;;;-5.00;100.00;101148.27;1759418;80;21090;-65
2021/12/28 05:37:17;;;;;;;31.17;13.80;;;;;;;-4.99;100.00;101149.53;1719477;82;20965;-65
2021/12/28 05:39:45;;;;;;;29.47;12.47;;;;;;;-4.96;100.00;101152.16;1680142;83;21479;-65
2021/12/28 05:42:12;;;;;;;29.13;13.33;;;;;;;-4.92;100.00;101150.59;1737103;80;21466;-65
2021/12/28 05:44:40;;;;;;;25.50;13.13;;;;;;;-4.90;100.00;101151.08;1760520;81;21062;-65
2021/12/28 05:47:07;;;;;;;28.37;12.63;;;;;;;-4.96;100.00;101139.59;1760542;80;21011;-66
2021/12/28 05:49:35;;;;;;;27.57;12.80;;;;;;;-4.92;100.00;101139.29;1716880;82;21052;-65
2021/12/28 05:52:03;;;;;;;23.37;12.17;;;;;;;-4.86;100.00;101148.26;1694310;83;21639;-65
2021/12/28 05:54:30;;;;;;;23.67;11.93;;;;;;;-4.85;100.00;101142.00;1694826;82;21471;-65
2021/12/28 05:56:56;;;;;;;23.10;11.83;;;;;;;-4.80;100.00;101148.44;1747493;81;20963;-66
2021/12/28 05:59:23;;;;;;;26.37;11.63;;;;;;;-4.83;100.00;101147.08;1744529;81;20992;-65
2021/12/28 06:01:50;;;;;;;25.50;12.77;;;;;;;-4.79;100.00;101140.08;1752333;80;21080;-65
2021/12/28 06:04:17;;;;;;;25.43;12.43;;;;;;;-4.78;100.00;101145.56;1757185;81;21003;-66
2021/12/28 06:06:44;;;;;;;25.87;12.67;;;;;;;-4.67;100.00;101149.63;1749416;81;21496;-66
2021/12/28 06:09:11;;;;;;;24.77;12.47;;;;;;;-4.67;100.00;101135.81;1747162;81;20992;-65
2021/12/28 06:11:37;;;;;;;29.33;12.97;;;;;;;-4.71;100.00;101143.66;1713663;82;21057;-65
2021/12/28 06:14:04;;;;;;;29.27;13.93;;;;;;;-4.69;100.00;101142.04;1751442;81;20997;-65
2021/12/28 06:16:34;;;;;;;29.70;13.23;;;;;;;-4.73;100.00;101130.20;1709924;83;21031;-65
2021/12/28 06:19:06;;;;;;;27.40;12.57;;;;;;;-4.71;100.00;101133.61;1657600;85;21044;-65
2021/12/28 06:21:34;;;;;;;28.90;13.20;;;;;;;-4.67;100.00;101127.86;1702208;83;21013;-65
2021/12/28 06:24:04;;;;;;;27.30;13.17;;;;;;;-4.66;100.00;101131.25;1706704;84;21029;-65
2021/12/28 06:26:33;;;;;;;28.57;12.83;;;;;;;-4.65;100.00;101123.73;1714686;83;21052;-65
2021/12/28 06:29:04;;;;;;;24.27;11.97;;;;;;;-4.64;100.00;101123.35;1706635;84;21024;-65
2021/12/28 06:31:33;;;;;;;24.10;11.77;;;;;;;-4.62;100.00;101122.98;1711968;83;21024;-65
2021/12/28 06:34:03;;;;;;;25.17;12.00;;;;;;;-4.62;100.00;101121.73;1700439;83;20981;-65
2021/12/28 06:36:30;;;;;;;24.30;11.40;;;;;;;-4.58;100.00;101111.34;1713550;82;21608;-66
2021/12/28 06:38:57;;;;;;;25.03;11.80;;;;;;;-4.59;100.00;101102.95;1749211;81;21012;-65
2021/12/28 06:41:24;;;;;;;24.80;11.13;;;;;;;-4.55;100.00;101106.41;1751312;81;21058;-65
2021/12/28 06:43:51;;;;;;;25.70;11.43;;;;;;;-4.58;100.00;101096.27;1744189;81;21042;-66
2021/12/28 06:46:18;;;;;;;23.27;11.00;;;;;;;-4.58;100.00;101095.88;1756240;81;21039;-66
2021/12/28 06:48:44;;;;;;;27.77;11.80;;;;;;;-4.57;100.00;101103.01;1758319;81;21045;-65
2021/12/28 06:51:11;;;;;;;22.97;10.90;;;;;;;-4.54;100.00;101091.77;1758143;81;21001;-66
2021/12/28 06:53:40;;;;;;;23.73;11.77;;;;;;;-4.54;100.00;101088.88;1736903;81;21106;-66
2021/12/28 06:56:07;;;;;;;26.83;11.47;;;;;;;-4.54;100.00;101085.11;1776446;80;21570;-65
2021/12/28 06:58:36;;;;;;;22.10;11.50;;;;;;;-4.54;100.00;101091.39;1738109;80;21087;-66
2021/12/28 07:01:04;;;;;;;30.20;12.10;;;;;;;-4.52;100.00;101079.72;1732521;83;21070;-66
2021/12/28 07:03:33;;;;;;;22.83;11.73;;;;;;;-4.54;100.00;101065.39;1738280;81;20977;-66
2021/12/28 07:06:00;;;;;;;25.63;11.43;;;;;;;-4.54;100.00;101081.72;1746204;82;21028;-66
2021/12/28 07:08:29;;;;;;;22.80;10.87;;;;;;;-4.51;100.00;101066.73;1744698;79;20987;-66
2021/12/28 07:10:56;;;;;;;22.37;10.30;;;;;;;-4.48;100.00;101060.14;1743704;82;21527;-65
2021/12/28 07:13:23;;;;;;;22.47;11.43;;;;;;;-4.50;100.00;101063.02;1723370;81;20999;-66
2021/12/28 07:15:51;;;;;;;21.97;10.83;;;;;;;-4.49;100.00;101048.38;1744384;81;21058;-66
2021/12/28 07:18:19;;;;;;;24.13;11.40;;;;;;;-4.48;100.00;101055.50;1744178;80;21496;-65
2021/12/28 07:20:48;;;;;;;21.80;10.97;;;;;;;-4.48;100.00;101046.70;1744681;81;21491;-66
2021/12/28 07:23:15;;;;;;;26.50;11.57;;;;;;;-4.47;100.00;101053.45;1744094;81;21620;-65
2021/12/28 07:25:43;;;;;;;23.20;11.03;;;;;;;-4.47;100.00;101044.66;1743955;81;21017;-65
2021/12/28 07:28:10;;;;;;;24.80;12.13;;;;;;;-4.46;100.00;101046.34;1744072;82;21010;-64
2021/12/28 07:30:37;;;;;;;22.53;10.40;;;;;;;-4.52;100.00;101042.03;1744022;82;21074;-64
2021/12/28 07:33:04;;;;;;;24.33;11.53;;;;;;;-4.53;100.00;101046.59;1745188;81;21065;-66
2021/12/28 07:35:33;;;;;;;24.40;10.83;;;;;;;-4.48;100.00;101046.70;1754929;82;21376;-65
2021/12/28 07:38:00;;;;;;;24.43;11.37;;;;;;;-4.41;100.00;101039.78;1754983;82;21047;-65
2021/12/28 07:40:28;;;;;;;23.23;10.93;;;;;;;-4.41;100.00;101028.47;1758098;81;20976;-65
2021/12/28 07:42:55;;;;;;;25.13;11.03;;;;;;;-4.40;100.00;101003.77;1759435;80;21478;-65
2021/12/28 07:45:22;;;;;;;22.30;10.93;;;;;;;-4.41;100.00;100995.80;1758227;80;20979;-66
2021/12/28 07:47:51;;;;;;;21.80;10.20;;;;;;;-4.41;100.00;100982.40;1759217;80;21008;-65
2021/12/28 07:50:19;;;;;;;22.43;10.63;;;;;;;-4.43;100.00;100999.53;1716099;82;21008;-65
2021/12/28 07:52:48;;;;;;;22.30;10.63;;;;;;;-4.42;100.00;100991.58;1752836;80;21103;-66
2021/12/28 07:55:16;;;;;;;25.00;9.70;;;;;;;-4.40;100.00;101000.42;1754361;81;20980;-65
2021/12/28 07:57:44;;;;;;;23.50;10.37;;;;;;;-4.34;100.00;100993.91;1764141;81;21016;-65
2021/12/28 08:00:15;;;;;;;20.27;9.63;;;;;;;-4.31;100.00;100981.81;1764050;81;21016;-66
2021/12/28 08:02:43;;;;;;;19.83;8.63;;;;;;;-4.23;100.00;100972.37;1763864;81;21067;-65
2021/12/28 08:05:14;;;;;;;19.53;9.80;;;;;;;-4.20;100.00;100965.30;1764212;81;21476;-66
2021/12/28 08:07:41;;;;;;;23.37;9.93;;;;;;;-4.11;100.00;100982.29;1763910;81;21075;-65
2021/12/28 08:10:13;;;;;;;18.83;9.53;;;;;;;-4.06;100.00;100990.36;1761129;81;21009;-65
2021/12/28 08:12:40;;;;;;;19.73;9.43;;;;;;;-4.00;100.00;100993.42;1744198;81;20999;-66
2021/12/28 08:15:09;;;;;;;18.03;8.77;;;;;;;-3.98;100.00;100985.51;1742344;81;21004;-65
2021/12/28 08:17:37;;;;;;;18.63;8.70;;;;;;;-3.98;100.00;100990.95;1745942;81;21711;-65
2021/12/28 08:20:07;;;;;;;18.03;9.33;;;;;;;-3.96;100.00;100967.95;1754306;81;20996;-66
2021/12/28 08:22:37;;;;;;;18.47;8.93;;;;;;;-3.97;100.00;100952.02;1743543;81;20995;-66
2021/12/28 08:25:07;;;;;;;18.37;8.40;;;;;;;-3.91;100.00;100936.22;1740487;79;22454;-65
2021/12/28 08:27:34;;;;;;;20.33;9.07;;;;;;;-3.88;100.00;100928.73;1744893;81;21502;-65
2021/12/28 08:30:01;;;;;;;17.90;8.47;;;;;;;-3.78;100.00;100915.53;1708494;82;21078;-66
2021/12/28 08:32:29;;;;;;;18.83;9.07;;;;;;;-3.78;100.00;100903.37;1680100;85;21549;-65
2021/12/28 08:34:56;;;;;;;19.47;8.90;;;;;;;-3.83;100.00;100912.92;1678079;85;21010;-65
2021/12/28 08:37:23;;;;;;;21.17;8.77;;;;;;;-3.80;100.00;100915.06;1662517;85;21012;-65
2021/12/28 08:39:49;;;;;;;20.30;9.33;;;;;;;-3.80;100.00;100910.88;1678773;84;21545;-65
2021/12/28 08:42:17;;;;;;;18.57;8.70;;;;;;;-3.82;100.00;100899.52;1678210;84;21108;-66
2021/12/28 08:44:44;;;;;;;21.73;9.80;;;;;;;-3.84;100.00;100879.77;1679819;85;21082;-66
2021/12/28 08:47:12;;;;;;;19.50;8.90;;;;;;;-3.82;100.00;100876.03;1682182;84;21131;-66
2021/12/28 08:49:39;;;;;;;23.17;9.17;;;;;;;-3.79;100.00;100863.92;1678257;85;21524;-65
2021/12/28 08:52:07;;;;;;;19.10;8.97;;;;;;;-3.75;100.00;100851.84;1702002;83;21078;-66
2021/12/28 08:54:34;;;;;;;19.43;8.90;;;;;;;-3.72;100.00;100848.15;1708597;83;21074;-66
2021/12/28 08:57:02;;;;;;;19.83;8.17;;;;;;;-3.71;100.00;100841.90;1708645;84;21061;-66
2021/12/28 08:59:29;;;;;;;16.17;8.00;;;;;;;-3.77;100.00;100831.72;1708703;83;21640;-66
2021/12/28 09:01:56;;;;;;;19.43;7.87;;;;;;;-3.78;100.00;100815.33;1708938;83;21046;-66
2021/12/28 09:04:23;;;;;;;17.27;8.13;;;;;;;-3.80;100.00;100809.00;1708899;83;21006;-66
2021/12/28 09:06:50;;;;;;;17.23;8.20;;;;;;;-3.73;100.00;100803.67;1689216;84;21049;-66
2021/12/28 09:09:16;;;;;;;16.37;7.40;;;;;;;-3.75;100.00;100800.28;1708659;83;21085;-66
2021/12/28 09:11:45;;;;;;;18.27;8.00;;;;;;;-3.70;100.00;100797.45;1708638;83;21081;-66
2021/12/28 09:14:13;;;;;;;17.00;7.57;;;;;;;-3.66;100.00;100802.98;1707754;83;20998;-67
2021/12/28 09:16:40;;;;;;;14.20;6.80;;;;;;;-3.65;100.00;100801.76;1761145;80;21254;-67
2021/12/28 09:19:07;;;;;;;15.23;6.90;;;;;;;-3.59;100.00;100798.91;1759078;81;21006;-67
2021/12/28 09:21:34;;;;;;;19.50;8.30;;;;;;;-3.59;100.00;100809.80;1720751;82;21056;-68
2021/12/28 09:24:01;;;;;;;15.10;7.63;;;;;;;-3.55;100.00;100801.91;1763294;80;21008;-68
2021/12/28 09:26:29;;;;;;;13.73;6.67;;;;;;;-3.55;100.00;100796.46;1747013;81;21088;-68
2021/12/28 09:28:56;;;;;;;16.60;7.23;;;;;;;-3.52;100.00;100800.30;1744150;81;21533;-67
2021/12/28 09:31:23;;;;;;;16.50;7.57;;;;;;;-3.54;100.00;100791.88;1744049;81;21097;-67
2021/12/28 09:33:50;;;;;;;16.40;7.70;;;;;;;-3.53;100.00;100790.20;1744448;81;21029;-67
2021/12/28 09:36:18;;;;;;;13.77;6.90;;;;;;;-3.51;100.00;100782.27;1744368;81;21611;-67
2021/12/28 09:38:45;;;;;;;16.30;6.67;;;;;;;-3.48;100.00;100765.56;1748925;81;20986;-67
2021/12/28 09:41:14;;;;;;;13.07;6.40;;;;;;;-3.44;100.00;100763.95;1725516;80;21019;-68
2021/12/28 09:43:43;;;;;;;12.67;6.43;;;;;;;-3.42;100.00;100779.52;1752434;80;21033;-68
2021/12/28 09:46:10;;;;;;;12.00;6.37;;;;;;;-3.39;100.00;100769.90;1759087;80;20992;-67
2021/12/28 09:48:38;;;;;;;10.57;5.07;;;;;;;-3.35;100.00;100782.13;1743932;81;21045;-68
2021/12/28 09:51:07;;;;;;;11.50;5.57;;;;;;;-3.35;100.00;100773.33;1743773;82;21063;-68
2021/12/28 09:53:35;;;;;;;14.47;5.50;;;;;;;-3.26;100.00;100754.61;1743497;82;21048;-67
2021/12/28 09:56:05;;;;;;;11.07;5.30;;;;;;;-3.25;100.00;100759.64;1742631;81;21067;-66
2021/12/28 09:58:37;;;;;;;12.80;5.47;;;;;;;-3.17;100.00;100742.58;1744224;82;21049;-64
2021/12/28 10:01:08;;;;;;;10.43;5.90;;;;;;;-3.14;100.00;100731.27;1747666;81;21029;-65
2021/12/28 10:03:36;;;;;;;14.57;5.87;;;;;;;-3.11;100.00;100713.29;1755486;81;20979;-65
2021/12/28 10:06:22;;;;;;;9.30;4.70;;;;;;;-3.11;100.00;100720.00;1744252;81;20978;-67
2021/12/28 10:09:09;;;;;;;11.83;5.60;;;;;;;-3.10;100.00;100686.04;1753618;80;21639;-67
2021/12/28 10:11:40;;;;;;;10.47;5.00;;;;;;;-3.08;100.00;100688.17;1769103;80;21024;-64
2021/12/28 10:14:19;;;;;;;9.07;4.60;;;;;;;-3.06;100.00;100694.08;1714074;82;20977;-65
2021/12/28 10:16:54;;;;;;;8.83;4.40;;;;;;;-3.05;100.00;100703.30;1691634;84;21528;-65
2021/12/28 10:19:44;;;;;;;9.53;4.90;;;;;;;-3.06;100.00;100684.42;1705392;84;21072;-65
2021/12/28 10:22:35;;;;;;;9.17;5.13;;;;;;;-3.03;100.00;100678.16;1713188;83;21067;-65
2021/12/28 10:25:23;;;;;;;13.80;4.83;;;;;;;-3.08;100.00;100674.70;1707005;83;21048;-67
2021/12/28 10:28:00;;;;;;;11.27;5.57;;;;;;;-3.09;100.00;100723.39;1707159;83;21111;-68
2021/12/28 10:30:40;;;;;;;12.07;5.33;;;;;;;-3.11;100.00;100706.16;1729480;82;21008;-67
2021/12/28 10:33:16;;;;;;;13.10;5.60;;;;;;;-3.11;100.00;100670.91;1711577;83;21059;-67
2021/12/28 10:35:48;;;;;;;;;;;;;;;-3.10;100.00;100659.98;1709444;84;21023;-67
2021/12/28 10:38:20;;;;;;;9.97;5.07;;;;;;;-3.07;100.00;100643.27;1706464;84;20217;-65
2021/12/28 10:40:54;;;;;;;10.73;4.83;;;;;;;-3.05;100.00;100639.09;1738883;82;21031;-64
2021/12/28 10:43:29;;;;;;;8.90;4.62;;;;;;;-3.07;100.00;100634.45;1777514;80;21071;-64
2021/12/28 10:46:09;;;;;;;10.40;5.47;;;;;;;-3.08;100.00;100632.77;1774159;81;21507;-65
2021/12/28 10:48:46;;;;;;;12.10;5.07;;;;;;;-3.07;100.00;100620.59;1774777;79;21539;-65
2021/12/28 10:51:21;;;;;;;8.73;4.97;;;;;;;-3.08;100.00;100618.05;1775217;80;20973;-65
2021/12/28 10:56:43;;;;;;;8.35;4.30;;;;;;;-3.01;100.00;100631.17;1775088;81;21496;-65
2021/12/28 10:59:12;;;;;;;8.47;4.23;;;;;;;-2.99;100.00;100612.31;1768674;81;21523;-65
2021/12/28 11:01:42;;;;;;;9.73;4.80;;;;;;;-2.94;100.00;100599.34;1774997;81;21071;-67
2021/12/28 11:04:12;;;;;;;7.27;3.80;;;;;;;-2.96;100.00;100611.07;1775005;80;21472;-67
2021/12/28 11:06:52;;;;;;;10.07;5.03;;;;;;;-2.97;100.00;100581.69;1775313;80;20980;-67
2021/12/28 11:09:23;;;;;;;9.33;4.77;;;;;;;-2.96;100.00;100571.64;1775138;81;21531;-67
2021/12/28 11:11:53;;;;;;;7.60;4.40;;;;;;;-3.01;100.00;100559.39;1774829;81;21635;-67
2021/12/28 11:14:24;;;;;;;7.80;4.47;;;;;;;-2.95;100.00;100544.36;1775107;80;21024;-67
2021/12/28 11:17:00;;;;;;;8.67;4.60;;;;;;;-2.91;100.00;100546.08;1775020;81;21067;-67
2021/12/28 11:19:33;;;;;;;7.63;4.20;;;;;;;-2.90;100.00;100563.29;1775262;80;21036;-67